sensor_id;sensor_type;location;lat;lon;timestamp;temperature;humidity
11540;DHT22;5826;54.756;9.192;2023-04-27T00:01:39;5.10;99.90
11540;DHT22;5826;54.756;9.192;2023-04-27T00:04:05;5.20;99.90
11540;DHT22;5826;54.756;9.192;2023-04-27T00:06:31;5.20;99.90
11540;DHT22;5826;54.756;9.192;2023-04-27T00:08:58;5.20;99.90
11540;DHT22;5826;54.756;9.192;2023-04-27T00:11:24;5.20;99.90
11540;DHT22;5826;54.756;9.192;2023-04-27T00:13:50;5.30;99.90
11540;DHT22;5826;54.756;9.192;2023-04-27T00:16:15;5.30;99.90
11540;DHT22;5826;54.756;9.192;2023-04-27T00:18:41;5.30;99.90
11540;DHT22;5826;54.756;9.192;2023-04-27T00:21:08;5.40;99.90
11540;DHT22;5826;54.756;9.192;2023-04-27T00:23:33;5.40;99.90
11540;DHT22;5826;54.756;9.192;2023-04-27T00:25:59;5.40;99.90
11540;DHT22;5826;54.756;9.192;2023-04-27T00:28:24;5.40;99.90
11540;DHT22;5826;54.756;9.192;2023-04-27T00:30:50;5.50;99.90
11540;DHT22;5826;54.756;9.192;2023-04-27T00:33:18;5.50;99.90
11540;DHT22;5826;54.756;9.192;2023-04-27T00:35:44;5.50;99.90
11540;DHT22;5826;54.756;9.192;2023-04-27T00:38:10;5.50;99.90
11540;DHT22;5826;54.756;9.192;2023-04-27T00:40:36;5.40;99.90
11540;DHT22;5826;54.756;9.192;2023-04-27T00:43:01;5.40;99.90
11540;DHT22;5826;54.756;9.192;2023-04-27T00:45:27;5.40;99.90
11540;DHT22;5826;54.756;9.192;2023-04-27T00:47:52;5.40;99.90
11540;DHT22;5826;54.756;9.192;2023-04-27T00:50:26;5.40;99.90
11540;DHT22;5826;54.756;9.192;2023-04-27T00:52:52;5.50;99.90
11540;DHT22;5826;54.756;9.192;2023-04-27T00:55:18;5.40;99.90
11540;DHT22;5826;54.756;9.192;2023-04-27T00:57:43;5.40;99.90
11540;DHT22;5826;54.756;9.192;2023-04-27T01:00:09;5.40;99.90
11540;DHT22;5826;54.756;9.192;2023-04-27T01:02:36;5.40;99.90
11540;DHT22;5826;54.756;9.192;2023-04-27T01:05:02;5.40;99.90
11540;DHT22;5826;54.756;9.192;2023-04-27T01:07:28;5.30;99.90
11540;DHT22;5826;54.756;9.192;2023-04-27T01:09:53;5.30;99.90
11540;DHT22;5826;54.756;9.192;2023-04-27T01:12:19;5.30;99.90
11540;DHT22;5826;54.756;9.192;2023-04-27T01:14:44;5.30;99.90
11540;DHT22;5826;54.756;9.192;2023-04-27T01:17:10;5.30;99.90
11540;DHT22;5826;54.756;9.192;2023-04-27T01:19:36;5.30;99.90
11540;DHT22;5826;54.756;9.192;2023-04-27T01:22:02;5.30;99.90
11540;DHT22;5826;54.756;9.192;2023-04-27T01:24:27;5.30;99.90
11540;DHT22;5826;54.756;9.192;2023-04-27T01:26:53;5.20;99.90
11540;DHT22;5826;54.756;9.192;2023-04-27T01:29:19;5.20;99.90
11540;DHT22;5826;54.756;9.192;2023-04-27T01:31:45;5.20;99.90
11540;DHT22;5826;54.756;9.192;2023-04-27T01:34:11;5.20;99.90
11540;DHT22;5826;54.756;9.192;2023-04-27T01:36:36;5.20;99.90
11540;DHT22;5826;54.756;9.192;2023-04-27T01:39:02;5.20;99.90
11540;DHT22;5826;54.756;9.192;2023-04-27T01:41:28;5.20;99.90
11540;DHT22;5826;54.756;9.192;2023-04-27T01:43:54;5.20;99.90
11540;DHT22;5826;54.756;9.192;2023-04-27T01:46:19;5.10;99.90
11540;DHT22;5826;54.756;9.192;2023-04-27T01:48:45;5.20;99.90
11540;DHT22;5826;54.756;9.192;2023-04-27T01:51:10;5.10;99.90
11540;DHT22;5826;54.756;9.192;2023-04-27T01:53:36;5.10;99.90
11540;DHT22;5826;54.756;9.192;2023-04-27T01:56:02;5.20;99.90
11540;DHT22;5826;54.756;9.192;2023-04-27T01:58:27;5.20;99.90
11540;DHT22;5826;54.756;9.192;2023-04-27T02:00:53;5.20;99.90
11540;DHT22;5826;54.756;9.192;2023-04-27T02:03:18;5.10;99.90
11540;DHT22;5826;54.756;9.192;2023-04-27T02:05:44;5.20;99.90
11540;DHT22;5826;54.756;9.192;2023-04-27T02:08:09;5.20;99.90
11540;DHT22;5826;54.756;9.192;2023-04-27T02:10:35;5.20;99.90
11540;DHT22;5826;54.756;9.192;2023-04-27T02:13:01;5.20;99.90
11540;DHT22;5826;54.756;9.192;2023-04-27T02:15:27;5.30;99.90
11540;DHT22;5826;54.756;9.192;2023-04-27T02:17:53;5.30;99.90
11540;DHT22;5826;54.756;9.192;2023-04-27T02:20:18;5.30;99.90
11540;DHT22;5826;54.756;9.192;2023-04-27T02:22:44;5.30;99.90
11540;DHT22;5826;54.756;9.192;2023-04-27T02:25:11;5.30;99.90
11540;DHT22;5826;54.756;9.192;2023-04-27T02:27:40;5.30;99.90
11540;DHT22;5826;54.756;9.192;2023-04-27T02:30:10;5.30;99.90
11540;DHT22;5826;54.756;9.192;2023-04-27T02:32:36;5.40;99.90
11540;DHT22;5826;54.756;9.192;2023-04-27T02:35:02;5.30;99.90
11540;DHT22;5826;54.756;9.192;2023-04-27T02:37:27;5.30;99.90
11540;DHT22;5826;54.756;9.192;2023-04-27T02:39:53;5.30;99.90
11540;DHT22;5826;54.756;9.192;2023-04-27T02:42:19;5.30;99.90
11540;DHT22;5826;54.756;9.192;2023-04-27T02:44:45;5.30;99.90
11540;DHT22;5826;54.756;9.192;2023-04-27T02:47:10;5.30;99.90
11540;DHT22;5826;54.756;9.192;2023-04-27T02:49:36;5.20;99.90
11540;DHT22;5826;54.756;9.192;2023-04-27T02:52:02;5.20;99.90
11540;DHT22;5826;54.756;9.192;2023-04-27T02:54:28;5.20;99.90
11540;DHT22;5826;54.756;9.192;2023-04-27T02:56:53;5.20;99.90
11540;DHT22;5826;54.756;9.192;2023-04-27T02:59:19;5.20;99.90
11540;DHT22;5826;54.756;9.192;2023-04-27T03:01:45;5.20;99.90
11540;DHT22;5826;54.756;9.192;2023-04-27T03:04:10;5.20;99.90
11540;DHT22;5826;54.756;9.192;2023-04-27T03:06:38;5.30;99.90
11540;DHT22;5826;54.756;9.192;2023-04-27T03:09:04;5.30;99.90
11540;DHT22;5826;54.756;9.192;2023-04-27T03:11:29;5.20;99.90
11540;DHT22;5826;54.756;9.192;2023-04-27T03:13:55;5.20;99.90
11540;DHT22;5826;54.756;9.192;2023-04-27T03:16:20;5.20;99.90
11540;DHT22;5826;54.756;9.192;2023-04-27T03:18:46;5.20;99.90
11540;DHT22;5826;54.756;9.192;2023-04-27T03:21:12;5.20;99.90
11540;DHT22;5826;54.756;9.192;2023-04-27T03:23:38;5.20;99.90
11540;DHT22;5826;54.756;9.192;2023-04-27T03:26:11;5.20;99.90
11540;DHT22;5826;54.756;9.192;2023-04-27T03:28:38;5.20;99.90
11540;DHT22;5826;54.756;9.192;2023-04-27T03:31:04;5.20;99.90
11540;DHT22;5826;54.756;9.192;2023-04-27T03:33:30;5.20;99.90
11540;DHT22;5826;54.756;9.192;2023-04-27T03:35:56;5.20;99.90
11540;DHT22;5826;54.756;9.192;2023-04-27T03:38:23;5.20;99.90
11540;DHT22;5826;54.756;9.192;2023-04-27T03:40:48;5.20;99.90
11540;DHT22;5826;54.756;9.192;2023-04-27T03:43:14;5.20;99.90
11540;DHT22;5826;54.756;9.192;2023-04-27T03:45:39;5.10;99.90
11540;DHT22;5826;54.756;9.192;2023-04-27T03:48:05;5.10;99.90
11540;DHT22;5826;54.756;9.192;2023-04-27T03:50:31;5.10;99.90
11540;DHT22;5826;54.756;9.192;2023-04-27T03:52:56;5.00;99.90
11540;DHT22;5826;54.756;9.192;2023-04-27T03:55:22;5.00;99.90
11540;DHT22;5826;54.756;9.192;2023-04-27T03:57:47;5.00;99.90
11540;DHT22;5826;54.756;9.192;2023-04-27T04:00:13;5.00;99.90
11540;DHT22;5826;54.756;9.192;2023-04-27T04:02:40;5.00;99.90
11540;DHT22;5826;54.756;9.192;2023-04-27T04:05:06;5.10;99.90
11540;DHT22;5826;54.756;9.192;2023-04-27T04:07:32;5.10;99.90
11540;DHT22;5826;54.756;9.192;2023-04-27T04:09:57;5.10;99.90
11540;DHT22;5826;54.756;9.192;2023-04-27T04:12:23;5.10;99.90
11540;DHT22;5826;54.756;9.192;2023-04-27T04:14:48;5.10;99.90
11540;DHT22;5826;54.756;9.192;2023-04-27T04:17:14;5.10;99.90
11540;DHT22;5826;54.756;9.192;2023-04-27T04:19:40;5.00;99.90
11540;DHT22;5826;54.756;9.192;2023-04-27T04:22:05;5.10;99.90
11540;DHT22;5826;54.756;9.192;2023-04-27T04:24:31;5.10;99.90
11540;DHT22;5826;54.756;9.192;2023-04-27T04:26:56;5.10;99.90
11540;DHT22;5826;54.756;9.192;2023-04-27T04:29:23;5.10;99.90
11540;DHT22;5826;54.756;9.192;2023-04-27T04:31:49;5.10;99.90
11540;DHT22;5826;54.756;9.192;2023-04-27T04:34:14;5.20;99.90
11540;DHT22;5826;54.756;9.192;2023-04-27T04:36:40;5.20;99.90
11540;DHT22;5826;54.756;9.192;2023-04-27T04:39:06;5.20;99.90
11540;DHT22;5826;54.756;9.192;2023-04-27T04:41:32;5.20;99.90
11540;DHT22;5826;54.756;9.192;2023-04-27T04:43:58;5.20;99.90
11540;DHT22;5826;54.756;9.192;2023-04-27T04:46:24;5.30;99.90
11540;DHT22;5826;54.756;9.192;2023-04-27T04:48:50;5.30;99.90
11540;DHT22;5826;54.756;9.192;2023-04-27T04:51:16;5.30;99.90
11540;DHT22;5826;54.756;9.192;2023-04-27T04:53:41;5.30;99.90
11540;DHT22;5826;54.756;9.192;2023-04-27T04:56:11;5.40;99.90
11540;DHT22;5826;54.756;9.192;2023-04-27T04:58:37;5.40;99.90
11540;DHT22;5826;54.756;9.192;2023-04-27T05:01:03;5.50;99.90
11540;DHT22;5826;54.756;9.192;2023-04-27T05:03:28;5.50;99.90
11540;DHT22;5826;54.756;9.192;2023-04-27T05:05:54;5.50;99.90
11540;DHT22;5826;54.756;9.192;2023-04-27T05:08:19;5.50;99.90
11540;DHT22;5826;54.756;9.192;2023-04-27T05:10:52;5.60;99.90
11540;DHT22;5826;54.756;9.192;2023-04-27T05:13:18;5.60;99.90
11540;DHT22;5826;54.756;9.192;2023-04-27T05:15:43;5.60;99.90
11540;DHT22;5826;54.756;9.192;2023-04-27T05:18:09;5.70;99.90
11540;DHT22;5826;54.756;9.192;2023-04-27T05:20:36;5.70;99.90
11540;DHT22;5826;54.756;9.192;2023-04-27T05:23:02;5.70;99.90
11540;DHT22;5826;54.756;9.192;2023-04-27T05:25:31;5.70;99.90
11540;DHT22;5826;54.756;9.192;2023-04-27T05:27:57;5.80;99.90
11540;DHT22;5826;54.756;9.192;2023-04-27T05:30:23;5.80;99.90
11540;DHT22;5826;54.756;9.192;2023-04-27T05:32:48;5.90;99.90
11540;DHT22;5826;54.756;9.192;2023-04-27T05:35:14;6.00;99.90
11540;DHT22;5826;54.756;9.192;2023-04-27T05:37:39;6.00;99.90
11540;DHT22;5826;54.756;9.192;2023-04-27T05:40:06;6.00;99.90
11540;DHT22;5826;54.756;9.192;2023-04-27T05:42:36;6.10;99.90
11540;DHT22;5826;54.756;9.192;2023-04-27T05:45:02;6.20;99.90
11540;DHT22;5826;54.756;9.192;2023-04-27T05:47:29;6.20;99.90
11540;DHT22;5826;54.756;9.192;2023-04-27T05:49:54;6.30;99.90
11540;DHT22;5826;54.756;9.192;2023-04-27T05:52:20;6.40;99.90
11540;DHT22;5826;54.756;9.192;2023-04-27T05:54:47;6.40;99.90
11540;DHT22;5826;54.756;9.192;2023-04-27T05:57:13;6.40;99.90
11540;DHT22;5826;54.756;9.192;2023-04-27T05:59:38;6.40;99.90
11540;DHT22;5826;54.756;9.192;2023-04-27T06:02:04;6.40;99.90
11540;DHT22;5826;54.756;9.192;2023-04-27T06:04:29;6.50;99.90
11540;DHT22;5826;54.756;9.192;2023-04-27T06:06:57;6.50;99.90
11540;DHT22;5826;54.756;9.192;2023-04-27T06:09:22;6.60;99.90
11540;DHT22;5826;54.756;9.192;2023-04-27T06:11:48;6.70;99.90
11540;DHT22;5826;54.756;9.192;2023-04-27T06:14:13;6.70;99.90
11540;DHT22;5826;54.756;9.192;2023-04-27T06:16:39;6.70;99.90
11540;DHT22;5826;54.756;9.192;2023-04-27T06:19:05;6.80;99.90
11540;DHT22;5826;54.756;9.192;2023-04-27T06:21:32;6.90;99.90
11540;DHT22;5826;54.756;9.192;2023-04-27T06:23:58;6.90;99.90
11540;DHT22;5826;54.756;9.192;2023-04-27T06:26:23;7.00;99.90
11540;DHT22;5826;54.756;9.192;2023-04-27T06:28:49;7.00;99.90
11540;DHT22;5826;54.756;9.192;2023-04-27T06:31:14;7.00;99.90
11540;DHT22;5826;54.756;9.192;2023-04-27T06:33:40;7.10;99.90
11540;DHT22;5826;54.756;9.192;2023-04-27T06:36:06;7.10;99.90
11540;DHT22;5826;54.756;9.192;2023-04-27T06:38:31;7.30;99.90
11540;DHT22;5826;54.756;9.192;2023-04-27T06:40:57;7.50;99.90
11540;DHT22;5826;54.756;9.192;2023-04-27T06:43:23;7.60;99.90
11540;DHT22;5826;54.756;9.192;2023-04-27T06:45:49;7.70;99.90
11540;DHT22;5826;54.756;9.192;2023-04-27T06:48:14;7.70;99.90
11540;DHT22;5826;54.756;9.192;2023-04-27T06:50:41;7.80;99.90
11540;DHT22;5826;54.756;9.192;2023-04-27T06:53:07;7.80;99.90
11540;DHT22;5826;54.756;9.192;2023-04-27T06:55:33;7.90;99.90
11540;DHT22;5826;54.756;9.192;2023-04-27T06:57:59;7.80;99.90
11540;DHT22;5826;54.756;9.192;2023-04-27T07:00:24;7.90;99.90
11540;DHT22;5826;54.756;9.192;2023-04-27T07:02:51;7.90;99.90
11540;DHT22;5826;54.756;9.192;2023-04-27T07:05:17;7.90;99.90
11540;DHT22;5826;54.756;9.192;2023-04-27T07:07:42;7.90;99.90
11540;DHT22;5826;54.756;9.192;2023-04-27T07:10:08;8.40;99.90
11540;DHT22;5826;54.756;9.192;2023-04-27T07:12:34;8.10;99.90
11540;DHT22;5826;54.756;9.192;2023-04-27T07:14:59;8.10;99.90
11540;DHT22;5826;54.756;9.192;2023-04-27T07:17:25;8.20;99.90
11540;DHT22;5826;54.756;9.192;2023-04-27T07:19:50;8.40;99.90
11540;DHT22;5826;54.756;9.192;2023-04-27T07:22:16;8.50;99.90
11540;DHT22;5826;54.756;9.192;2023-04-27T07:24:42;8.60;99.90
11540;DHT22;5826;54.756;9.192;2023-04-27T07:27:07;8.70;99.90
11540;DHT22;5826;54.756;9.192;2023-04-27T07:29:33;8.60;99.90
11540;DHT22;5826;54.756;9.192;2023-04-27T07:32:05;8.60;99.90
11540;DHT22;5826;54.756;9.192;2023-04-27T07:34:30;8.60;99.90
11540;DHT22;5826;54.756;9.192;2023-04-27T07:36:56;8.60;99.90
11540;DHT22;5826;54.756;9.192;2023-04-27T07:39:21;8.60;99.90
11540;DHT22;5826;54.756;9.192;2023-04-27T07:41:47;8.70;99.90
11540;DHT22;5826;54.756;9.192;2023-04-27T07:44:14;8.70;99.90
11540;DHT22;5826;54.756;9.192;2023-04-27T07:46:40;8.70;99.90
11540;DHT22;5826;54.756;9.192;2023-04-27T07:49:05;8.80;99.90
11540;DHT22;5826;54.756;9.192;2023-04-27T07:51:31;9.00;99.90
11540;DHT22;5826;54.756;9.192;2023-04-27T07:53:59;9.10;99.90
11540;DHT22;5826;54.756;9.192;2023-04-27T07:56:24;9.10;99.90
11540;DHT22;5826;54.756;9.192;2023-04-27T07:58:50;9.10;99.90
11540;DHT22;5826;54.756;9.192;2023-04-27T08:01:16;9.10;99.90
11540;DHT22;5826;54.756;9.192;2023-04-27T08:03:41;9.10;99.90
11540;DHT22;5826;54.756;9.192;2023-04-27T08:06:07;9.20;99.90
11540;DHT22;5826;54.756;9.192;2023-04-27T08:08:32;9.10;99.90
11540;DHT22;5826;54.756;9.192;2023-04-27T08:10:58;9.10;99.90
11540;DHT22;5826;54.756;9.192;2023-04-27T08:13:23;9.00;99.90
11540;DHT22;5826;54.756;9.192;2023-04-27T08:15:49;9.00;99.90
11540;DHT22;5826;54.756;9.192;2023-04-27T08:18:15;9.00;99.90
11540;DHT22;5826;54.756;9.192;2023-04-27T08:20:42;8.90;99.90
11540;DHT22;5826;54.756;9.192;2023-04-27T08:23:07;8.90;99.90
11540;DHT22;5826;54.756;9.192;2023-04-27T08:25:35;9.00;99.90
11540;DHT22;5826;54.756;9.192;2023-04-27T08:28:01;8.90;99.90
11540;DHT22;5826;54.756;9.192;2023-04-27T08:30:26;8.90;99.90
11540;DHT22;5826;54.756;9.192;2023-04-27T08:32:52;9.00;99.90
11540;DHT22;5826;54.756;9.192;2023-04-27T08:35:19;9.20;99.90
11540;DHT22;5826;54.756;9.192;2023-04-27T08:37:45;9.40;99.90
11540;DHT22;5826;54.756;9.192;2023-04-27T08:40:11;9.60;99.90
11540;DHT22;5826;54.756;9.192;2023-04-27T08:42:37;9.80;99.90
11540;DHT22;5826;54.756;9.192;2023-04-27T08:45:06;9.80;99.90
11540;DHT22;5826;54.756;9.192;2023-04-27T08:47:32;9.80;99.90
11540;DHT22;5826;54.756;9.192;2023-04-27T08:49:58;9.70;99.90
11540;DHT22;5826;54.756;9.192;2023-04-27T08:52:23;9.80;99.90
11540;DHT22;5826;54.756;9.192;2023-04-27T08:54:49;9.80;99.90
11540;DHT22;5826;54.756;9.192;2023-04-27T08:57:14;9.90;99.90
11540;DHT22;5826;54.756;9.192;2023-04-27T08:59:41;10.00;99.90
11540;DHT22;5826;54.756;9.192;2023-04-27T09:02:19;10.10;99.90
11540;DHT22;5826;54.756;9.192;2023-04-27T09:04:45;10.00;99.90
11540;DHT22;5826;54.756;9.192;2023-04-27T09:07:15;10.20;99.90
11540;DHT22;5826;54.756;9.192;2023-04-27T09:09:41;10.30;99.90
11540;DHT22;5826;54.756;9.192;2023-04-27T09:12:15;10.30;99.90
11540;DHT22;5826;54.756;9.192;2023-04-27T09:14:42;10.40;99.90
11540;DHT22;5826;54.756;9.192;2023-04-27T09:17:07;10.50;99.90
11540;DHT22;5826;54.756;9.192;2023-04-27T09:19:33;10.50;99.90
11540;DHT22;5826;54.756;9.192;2023-04-27T09:22:07;10.50;99.90
11540;DHT22;5826;54.756;9.192;2023-04-27T09:24:33;10.40;99.90
11540;DHT22;5826;54.756;9.192;2023-04-27T09:26:59;10.30;99.90
11540;DHT22;5826;54.756;9.192;2023-04-27T09:29:35;10.30;99.90
11540;DHT22;5826;54.756;9.192;2023-04-27T09:32:00;10.40;99.90
11540;DHT22;5826;54.756;9.192;2023-04-27T09:34:37;10.30;99.90
11540;DHT22;5826;54.756;9.192;2023-04-27T09:37:03;10.40;99.90
11540;DHT22;5826;54.756;9.192;2023-04-27T09:39:29;10.50;99.90
11540;DHT22;5826;54.756;9.192;2023-04-27T09:41:55;10.60;99.90
11540;DHT22;5826;54.756;9.192;2023-04-27T09:44:21;10.70;99.90
11540;DHT22;5826;54.756;9.192;2023-04-27T09:46:46;10.70;99.90
11540;DHT22;5826;54.756;9.192;2023-04-27T09:49:13;10.60;99.90
11540;DHT22;5826;54.756;9.192;2023-04-27T09:51:40;10.50;99.90
11540;DHT22;5826;54.756;9.192;2023-04-27T09:54:06;10.50;99.90
11540;DHT22;5826;54.756;9.192;2023-04-27T09:56:50;10.40;99.90
11540;DHT22;5826;54.756;9.192;2023-04-27T09:59:28;10.30;99.90
11540;DHT22;5826;54.756;9.192;2023-04-27T10:01:59;10.30;99.90
11540;DHT22;5826;54.756;9.192;2023-04-27T10:07:28;10.40;99.90
11540;DHT22;5826;54.756;9.192;2023-04-27T10:10:00;10.60;99.90
11540;DHT22;5826;54.756;9.192;2023-04-27T10:12:27;10.70;99.90
11540;DHT22;5826;54.756;9.192;2023-04-27T10:14:58;10.80;99.90
11540;DHT22;5826;54.756;9.192;2023-04-27T10:19:57;10.90;99.90
11540;DHT22;5826;54.756;9.192;2023-04-27T10:22:23;11.00;99.90
11540;DHT22;5826;54.756;9.192;2023-04-27T10:24:50;11.10;99.90
11540;DHT22;5826;54.756;9.192;2023-04-27T10:27:18;11.20;99.90
11540;DHT22;5826;54.756;9.192;2023-04-27T10:29:46;11.30;99.90
11540;DHT22;5826;54.756;9.192;2023-04-27T10:32:23;11.40;99.90
11540;DHT22;5826;54.756;9.192;2023-04-27T10:35:03;11.40;99.90
11540;DHT22;5826;54.756;9.192;2023-04-27T10:37:42;11.40;99.90
11540;DHT22;5826;54.756;9.192;2023-04-27T10:40:09;11.40;99.90
11540;DHT22;5826;54.756;9.192;2023-04-27T10:42:35;11.30;99.90
11540;DHT22;5826;54.756;9.192;2023-04-27T10:45:01;11.20;99.90
11540;DHT22;5826;54.756;9.192;2023-04-27T10:47:40;11.10;99.90
11540;DHT22;5826;54.756;9.192;2023-04-27T10:50:11;10.90;99.90
11540;DHT22;5826;54.756;9.192;2023-04-27T10:52:44;10.80;99.90
11540;DHT22;5826;54.756;9.192;2023-04-27T10:55:17;10.80;99.90
11540;DHT22;5826;54.756;9.192;2023-04-27T10:57:49;10.60;99.90
11540;DHT22;5826;54.756;9.192;2023-04-27T11:02:48;10.30;99.90
11540;DHT22;5826;54.756;9.192;2023-04-27T11:05:17;10.20;99.90
11540;DHT22;5826;54.756;9.192;2023-04-27T11:07:43;10.10;99.90
11540;DHT22;5826;54.756;9.192;2023-04-27T11:10:09;10.20;99.90
11540;DHT22;5826;54.756;9.192;2023-04-27T11:12:35;10.20;99.90
11540;DHT22;5826;54.756;9.192;2023-04-27T11:15:01;10.30;99.90
11540;DHT22;5826;54.756;9.192;2023-04-27T11:17:28;10.30;99.90
11540;DHT22;5826;54.756;9.192;2023-04-27T11:19:53;10.40;99.90
11540;DHT22;5826;54.756;9.192;2023-04-27T11:22:19;10.50;99.90
11540;DHT22;5826;54.756;9.192;2023-04-27T11:24:48;10.60;99.90
11540;DHT22;5826;54.756;9.192;2023-04-27T11:27:15;10.80;99.90
11540;DHT22;5826;54.756;9.192;2023-04-27T11:29:40;11.10;99.90
11540;DHT22;5826;54.756;9.192;2023-04-27T11:32:06;11.10;99.90
11540;DHT22;5826;54.756;9.192;2023-04-27T11:34:32;11.20;99.90
11540;DHT22;5826;54.756;9.192;2023-04-27T11:37:06;11.20;99.90
11540;DHT22;5826;54.756;9.192;2023-04-27T11:39:34;11.10;99.90
11540;DHT22;5826;54.756;9.192;2023-04-27T11:42:20;10.90;99.90
11540;DHT22;5826;54.756;9.192;2023-04-27T11:45:02;10.80;99.90
11540;DHT22;5826;54.756;9.192;2023-04-27T11:47:31;10.70;99.90
11540;DHT22;5826;54.756;9.192;2023-04-27T11:49:59;10.60;99.90
11540;DHT22;5826;54.756;9.192;2023-04-27T11:52:33;10.70;99.90
11540;DHT22;5826;54.756;9.192;2023-04-27T11:55:00;10.70;99.90
11540;DHT22;5826;54.756;9.192;2023-04-27T11:57:28;10.80;99.90
11540;DHT22;5826;54.756;9.192;2023-04-27T11:59:55;10.80;99.90
11540;DHT22;5826;54.756;9.192;2023-04-27T12:02:21;10.80;99.90
11540;DHT22;5826;54.756;9.192;2023-04-27T12:04:48;10.90;99.90
11540;DHT22;5826;54.756;9.192;2023-04-27T12:07:13;11.10;99.90
11540;DHT22;5826;54.756;9.192;2023-04-27T12:09:39;11.30;99.90
11540;DHT22;5826;54.756;9.192;2023-04-27T12:12:05;11.50;99.90
11540;DHT22;5826;54.756;9.192;2023-04-27T12:14:31;11.80;99.90
11540;DHT22;5826;54.756;9.192;2023-04-27T12:16:57;12.00;99.90
11540;DHT22;5826;54.756;9.192;2023-04-27T12:19:22;12.30;99.90
11540;DHT22;5826;54.756;9.192;2023-04-27T12:21:51;12.40;99.90
11540;DHT22;5826;54.756;9.192;2023-04-27T12:24:17;12.50;99.90
11540;DHT22;5826;54.756;9.192;2023-04-27T12:26:43;12.50;99.90
11540;DHT22;5826;54.756;9.192;2023-04-27T12:29:08;12.20;99.90
11540;DHT22;5826;54.756;9.192;2023-04-27T12:31:34;12.00;99.90
11540;DHT22;5826;54.756;9.192;2023-04-27T12:34:00;11.80;99.90
11540;DHT22;5826;54.756;9.192;2023-04-27T12:36:26;11.50;99.90
11540;DHT22;5826;54.756;9.192;2023-04-27T12:38:58;11.40;99.90
11540;DHT22;5826;54.756;9.192;2023-04-27T12:41:24;11.30;99.90
11540;DHT22;5826;54.756;9.192;2023-04-27T12:43:49;11.30;99.90
11540;DHT22;5826;54.756;9.192;2023-04-27T12:46:15;11.40;99.90
11540;DHT22;5826;54.756;9.192;2023-04-27T12:48:42;11.30;99.90
11540;DHT22;5826;54.756;9.192;2023-04-27T12:51:08;11.30;99.90
11540;DHT22;5826;54.756;9.192;2023-04-27T12:53:33;11.20;99.90
11540;DHT22;5826;54.756;9.192;2023-04-27T12:56:00;11.10;99.90
11540;DHT22;5826;54.756;9.192;2023-04-27T12:58:26;11.10;99.90
11540;DHT22;5826;54.756;9.192;2023-04-27T13:00:52;11.00;99.90
11540;DHT22;5826;54.756;9.192;2023-04-27T13:03:17;11.10;99.90
11540;DHT22;5826;54.756;9.192;2023-04-27T13:05:43;11.30;99.90
11540;DHT22;5826;54.756;9.192;2023-04-27T13:08:08;11.60;99.90
11540;DHT22;5826;54.756;9.192;2023-04-27T13:10:35;11.60;99.90
11540;DHT22;5826;54.756;9.192;2023-04-27T13:13:01;11.40;99.90
11540;DHT22;5826;54.756;9.192;2023-04-27T13:15:26;11.20;99.90
11540;DHT22;5826;54.756;9.192;2023-04-27T13:17:52;10.90;99.90
11540;DHT22;5826;54.756;9.192;2023-04-27T13:20:18;10.70;99.90
11540;DHT22;5826;54.756;9.192;2023-04-27T13:22:44;10.50;99.90
11540;DHT22;5826;54.756;9.192;2023-04-27T13:25:10;10.50;99.90
11540;DHT22;5826;54.756;9.192;2023-04-27T13:27:35;10.50;99.90
11540;DHT22;5826;54.756;9.192;2023-04-27T13:30:01;10.40;99.90
11540;DHT22;5826;54.756;9.192;2023-04-27T13:32:26;10.50;99.90
11540;DHT22;5826;54.756;9.192;2023-04-27T13:34:52;10.50;99.90
11540;DHT22;5826;54.756;9.192;2023-04-27T13:37:17;10.50;99.90
11540;DHT22;5826;54.756;9.192;2023-04-27T13:39:43;10.50;99.90
11540;DHT22;5826;54.756;9.192;2023-04-27T13:42:08;10.50;99.90
11540;DHT22;5826;54.756;9.192;2023-04-27T13:44:34;10.50;99.90
11540;DHT22;5826;54.756;9.192;2023-04-27T13:46:59;10.50;99.90
11540;DHT22;5826;54.756;9.192;2023-04-27T13:49:25;10.60;99.90
11540;DHT22;5826;54.756;9.192;2023-04-27T13:51:51;10.60;99.90
11540;DHT22;5826;54.756;9.192;2023-04-27T13:54:16;10.60;99.90
11540;DHT22;5826;54.756;9.192;2023-04-27T13:56:42;10.70;99.90
11540;DHT22;5826;54.756;9.192;2023-04-27T13:59:07;10.80;99.90
11540;DHT22;5826;54.756;9.192;2023-04-27T14:01:34;10.80;99.90
11540;DHT22;5826;54.756;9.192;2023-04-27T14:04:00;10.90;99.90
11540;DHT22;5826;54.756;9.192;2023-04-27T14:06:26;11.10;99.90
11540;DHT22;5826;54.756;9.192;2023-04-27T14:08:52;11.60;99.90
11540;DHT22;5826;54.756;9.192;2023-04-27T14:11:17;12.00;99.90
11540;DHT22;5826;54.756;9.192;2023-04-27T14:13:43;12.20;99.90
11540;DHT22;5826;54.756;9.192;2023-04-27T14:16:09;12.20;99.90
11540;DHT22;5826;54.756;9.192;2023-04-27T14:18:34;12.00;99.90
11540;DHT22;5826;54.756;9.192;2023-04-27T14:21:00;11.80;99.90
11540;DHT22;5826;54.756;9.192;2023-04-27T14:23:26;11.60;99.90
11540;DHT22;5826;54.756;9.192;2023-04-27T14:25:51;11.40;99.90
11540;DHT22;5826;54.756;9.192;2023-04-27T14:28:17;11.20;99.90
11540;DHT22;5826;54.756;9.192;2023-04-27T14:30:42;11.00;99.90
11540;DHT22;5826;54.756;9.192;2023-04-27T14:33:08;10.80;99.90
11540;DHT22;5826;54.756;9.192;2023-04-27T14:35:34;10.60;99.90
11540;DHT22;5826;54.756;9.192;2023-04-27T14:37:59;10.50;99.90
11540;DHT22;5826;54.756;9.192;2023-04-27T14:40:29;10.50;99.90
11540;DHT22;5826;54.756;9.192;2023-04-27T14:42:55;10.50;99.90
11540;DHT22;5826;54.756;9.192;2023-04-27T14:45:20;11.10;99.90
11540;DHT22;5826;54.756;9.192;2023-04-27T14:47:46;11.90;99.90
11540;DHT22;5826;54.756;9.192;2023-04-27T14:50:12;12.50;99.90
11540;DHT22;5826;54.756;9.192;2023-04-27T14:52:38;12.50;99.90
11540;DHT22;5826;54.756;9.192;2023-04-27T14:55:04;12.30;99.90
11540;DHT22;5826;54.756;9.192;2023-04-27T14:57:30;12.10;99.90
11540;DHT22;5826;54.756;9.192;2023-04-27T14:59:56;12.10;99.90
11540;DHT22;5826;54.756;9.192;2023-04-27T15:02:21;12.00;99.90
11540;DHT22;5826;54.756;9.192;2023-04-27T15:04:47;11.90;99.90
11540;DHT22;5826;54.756;9.192;2023-04-27T15:07:13;11.80;99.90
11540;DHT22;5826;54.756;9.192;2023-04-27T15:09:38;11.60;99.90
11540;DHT22;5826;54.756;9.192;2023-04-27T15:12:04;11.40;99.90
11540;DHT22;5826;54.756;9.192;2023-04-27T15:14:31;11.30;99.90
11540;DHT22;5826;54.756;9.192;2023-04-27T15:16:57;11.40;99.90
11540;DHT22;5826;54.756;9.192;2023-04-27T15:19:22;12.10;99.90
11540;DHT22;5826;54.756;9.192;2023-04-27T15:21:48;13.00;99.90
11540;DHT22;5826;54.756;9.192;2023-04-27T15:24:13;13.30;99.90
11540;DHT22;5826;54.756;9.192;2023-04-27T15:26:39;13.30;99.90
11540;DHT22;5826;54.756;9.192;2023-04-27T15:29:05;13.40;99.90
11540;DHT22;5826;54.756;9.192;2023-04-27T15:31:31;13.70;99.90
11540;DHT22;5826;54.756;9.192;2023-04-27T15:33:56;13.80;99.90
11540;DHT22;5826;54.756;9.192;2023-04-27T15:36:22;14.10;99.90
11540;DHT22;5826;54.756;9.192;2023-04-27T15:38:51;14.60;99.90
11540;DHT22;5826;54.756;9.192;2023-04-27T15:41:17;15.30;99.90
11540;DHT22;5826;54.756;9.192;2023-04-27T15:43:43;15.90;99.90
11540;DHT22;5826;54.756;9.192;2023-04-27T15:46:08;16.20;99.90
11540;DHT22;5826;54.756;9.192;2023-04-27T15:48:34;16.30;99.30
11540;DHT22;5826;54.756;9.192;2023-04-27T15:51:00;16.40;99.90
11540;DHT22;5826;54.756;9.192;2023-04-27T15:53:26;16.70;99.80
11540;DHT22;5826;54.756;9.192;2023-04-27T15:55:52;17.00;99.70
11540;DHT22;5826;54.756;9.192;2023-04-27T15:58:18;17.00;99.40